Terminal Aerodrome Forecast
Issued by NWS Charleston, WV

Home | Current Version | Previous Version | Text Only | Print | Product List | Glossary On
Versions: 1 2 3 4 5 6 7 8 9 10 11 12 13 14 15 16 17 18 19 20 21 22 23 24
000
FTUS41 KRLX 230637 AAA
TAFCRW
TAF AMD
KCRW 230637Z 2307/2406 00000KT 1/2SM FG BKN001 BKN040
     FM231200 VRB02KT 4SM BR BKN030
     FM231400 VRB02KT P6SM BKN030
     FM231800 23006KT P6SM BKN035=

USA.gov is the U.S. government's official web portal to all federal, state and local government web resources and services.